Time;durP1;ratioP1;P1;durP2;ratioP2;P2;SDS_P1;SDS_P2;PMS_P1;PMS_P2;Temp;Humidity;BMP_temperature;BMP_pressure;BME280_temperature;BME280_humidity;BME280_pressure;Samples;Min_cycle;Max_cycle;Signal;HPM_P1;HPM_P2
2023/10/22 00:02:10;;;;;;;9.53;5.90;;;;;;;-0.20;90.74;101970.22;4896847;29;20839;-64
2023/10/22 00:04:37;;;;;;;8.03;5.73;;;;;;;-0.23;90.73;101962.50;4897072;29;20768;-64
2023/10/22 00:07:03;;;;;;;11.53;6.50;;;;;;;-0.32;90.14;101963.72;4896694;29;20721;-65
2023/10/22 00:09:29;;;;;;;7.07;5.07;;;;;;;-0.68;90.20;101911.97;4897219;29;20273;-65
2023/10/22 00:11:54;;;;;;;10.03;5.67;;;;;;;-0.38;91.06;101954.34;4897801;29;20261;-62
2023/10/22 00:14:20;;;;;;;10.17;5.83;;;;;;;-0.44;91.54;101941.53;4897463;29;20037;-65
2023/10/22 00:16:45;;;;;;;8.43;5.60;;;;;;;-0.33;91.10;101952.38;4896996;29;20041;-65
2023/10/22 00:19:11;;;;;;;9.50;6.60;;;;;;;-0.27;90.66;101953.06;4896788;29;20651;-64
2023/10/22 00:21:36;;;;;;;11.37;5.60;;;;;;;-0.53;90.98;101922.75;4896846;29;20051;-65
2023/10/22 00:24:02;;;;;;;8.07;5.73;;;;;;;-0.37;91.39;101961.28;4897414;29;20084;-63
2023/10/22 00:26:28;;;;;;;8.87;6.67;;;;;;;-0.37;92.28;101949.97;4896838;29;20092;-65
2023/10/22 00:28:53;;;;;;;9.33;5.90;;;;;;;-0.30;91.48;101956.63;4897110;29;20043;-64
2023/10/22 00:31:19;;;;;;;9.23;6.17;;;;;;;-0.38;92.37;101938.66;4895639;29;20033;-63
2023/10/22 00:33:44;;;;;;;10.43;6.67;;;;;;;-0.45;91.47;101939.81;4896869;29;20519;-65
2023/10/22 00:36:10;;;;;;;11.77;6.77;;;;;;;-0.46;91.96;101937.25;4896845;29;20044;-62
2023/10/22 00:38:35;;;;;;;10.60;6.40;;;;;;;-0.56;93.01;101934.19;4898445;29;20051;-64
2023/10/22 00:41:01;;;;;;;10.37;6.43;;;;;;;-0.42;93.70;101952.78;4901773;29;20151;-65
2023/10/22 00:43:26;;;;;;;11.23;6.67;;;;;;;-0.47;93.09;101935.56;4900988;29;20041;-66
2023/10/22 00:45:53;;;;;;;10.03;6.83;;;;;;;-0.31;93.48;101955.78;4901315;29;20551;-64
2023/10/22 00:48:21;;;;;;;11.63;6.70;;;;;;;-0.32;92.27;101948.00;4900371;29;20095;-64
2023/10/22 00:50:47;;;;;;;12.30;7.15;;;;;;;-0.29;91.78;101941.78;4900812;29;20292;-62
2023/10/22 00:53:16;;;;;;;10.37;6.53;;;;;;;-0.25;91.93;101936.38;4898621;29;20080;-64
2023/10/22 00:55:43;;;;;;;;;;;;;;;-0.16;91.23;101940.38;4900522;29;20371;-64
2023/10/22 00:58:08;;;;;;;15.10;8.33;;;;;;;-0.20;91.32;101941.41;4900244;29;19995;-64
2023/10/22 01:00:35;;;;;;;12.67;8.07;;;;;;;-0.32;91.28;101927.91;4900401;29;20606;-66
2023/10/22 01:03:01;;;;;;;10.07;6.60;;;;;;;-0.37;90.77;101924.63;4899457;29;20059;-66
2023/10/22 01:05:28;;;;;;;10.87;6.33;;;;;;;-0.34;90.53;101919.28;4901187;29;20356;-63
2023/10/22 01:07:54;;;;;;;11.63;6.23;;;;;;;-0.26;91.85;101920.75;4902894;29;20301;-64
2023/10/22 01:10:19;;;;;;;10.13;6.40;;;;;;;0.00;92.08;101944.03;4900698;29;20273;-64
2023/10/22 01:12:45;;;;;;;7.17;6.20;;;;;;;0.09;90.69;101943.63;4902530;29;20041;-62
2023/10/22 01:15:10;;;;;;;9.20;5.63;;;;;;;0.14;90.84;101935.56;4900638;29;20036;-63
2023/10/22 01:17:36;;;;;;;6.93;5.30;;;;;;;0.12;90.25;101922.53;4901041;29;20079;-65
2023/10/22 01:20:03;;;;;;;9.70;4.80;;;;;;;0.07;89.55;101918.44;4900740;29;20606;-64
2023/10/22 01:22:29;;;;;;;8.27;5.57;;;;;;;0.09;89.20;101916.59;4899856;29;20133;-64
2023/10/22 01:24:55;;;;;;;11.67;6.27;;;;;;;0.36;88.44;101949.44;4899061;29;20685;-65
2023/10/22 01:27:21;;;;;;;10.10;5.43;;;;;;;0.34;88.89;101942.56;4898833;29;20044;-66
2023/10/22 01:29:46;;;;;;;11.47;5.47;;;;;;;0.12;88.38;101896.34;4901697;29;20962;-65
2023/10/22 01:32:13;;;;;;;11.83;5.87;;;;;;;0.25;87.33;101914.97;4902037;29;20385;-65
2023/10/22 01:34:39;;;;;;;7.87;6.00;;;;;;;0.20;86.33;101917.81;4899540;29;20032;-62
2023/10/22 01:37:04;;;;;;;12.70;8.23;;;;;;;0.06;87.28;101895.78;4900411;29;20300;-65
2023/10/22 01:39:30;;;;;;;8.73;5.70;;;;;;;0.22;87.77;101923.84;4899539;29;20044;-66
2023/10/22 01:41:56;;;;;;;11.57;5.37;;;;;;;0.19;87.47;101912.63;4899804;29;20040;-64
2023/10/22 01:44:21;;;;;;;10.30;6.00;;;;;;;0.26;87.27;101922.78;4900043;29;20036;-64
2023/10/22 01:46:47;;;;;;;10.40;5.63;;;;;;;0.12;86.49;101895.50;4899277;29;20052;-65
2023/10/22 01:49:12;;;;;;;7.07;5.87;;;;;;;0.12;87.02;101901.59;4899412;29;20103;-64
2023/10/22 01:51:40;;;;;;;9.57;6.37;;;;;;;0.10;87.00;101895.56;4900346;29;20131;-65
2023/10/22 01:54:06;;;;;;;8.63;5.32;;;;;;;0.17;87.69;101907.47;4903701;29;20123;-64
2023/10/22 01:56:32;;;;;;;7.97;5.77;;;;;;;0.06;86.94;101883.53;4903756;29;20068;-62
2023/10/22 01:58:58;;;;;;;8.77;5.67;;;;;;;-0.09;87.99;101871.94;4900101;29;20069;-67
2023/10/22 02:01:25;;;;;;;7.83;5.40;;;;;;;-0.40;87.73;101819.22;4898959;29;20063;-65
2023/10/22 02:03:51;;;;;;;8.00;5.53;;;;;;;-0.01;88.42;101874.22;4898649;29;20300;-64
2023/10/22 02:06:17;;;;;;;6.40;4.80;;;;;;;-0.40;88.00;101808.75;4899247;29;20304;-65
2023/10/22 02:08:45;;;;;;;8.37;5.13;;;;;;;0.02;88.05;101870.66;4898610;29;20040;-63
2023/10/22 02:11:11;;;;;;;8.63;5.80;;;;;;;0.01;88.56;101874.19;4898788;29;20367;-61
2023/10/22 02:13:38;;;;;;;7.93;5.20;;;;;;;-0.14;89.13;101852.97;4898542;29;20037;-64
2023/10/22 02:16:04;;;;;;;11.33;6.53;;;;;;;-0.05;89.02;101868.28;4897262;29;20275;-65
2023/10/22 02:18:29;;;;;;;10.83;7.07;;;;;;;-0.26;88.89;101829.13;4898783;29;20489;-65
2023/10/22 02:20:57;;;;;;;10.23;5.77;;;;;;;-0.18;89.80;101850.56;4898581;29;20044;-67
2023/10/22 02:23:24;;;;;;;8.90;5.32;;;;;;;-0.14;89.76;101859.97;4899548;29;20119;-64
2023/10/22 02:25:50;;;;;;;15.53;5.30;;;;;;;-0.17;90.50;101853.13;4912995;29;20044;-64
2023/10/22 02:28:19;;;;;;;8.07;4.83;;;;;;;-0.27;90.61;101832.66;4908721;29;20308;-66
2023/10/22 02:30:47;;;;;;;8.57;5.70;;;;;;;-0.18;91.53;101840.09;4907228;29;20359;-63
2023/10/22 02:33:13;;;;;;;9.63;5.40;;;;;;;-0.21;91.01;101824.53;4914185;29;20080;-64
2023/10/22 02:35:43;;;;;;;8.83;5.00;;;;;;;-0.23;91.43;101823.75;4915485;29;20273;-66
2023/10/22 02:38:13;;;;;;;7.70;5.47;;;;;;;-0.36;91.30;101795.47;4910169;29;20289;-62
2023/10/22 02:40:39;;;;;;;8.27;5.50;;;;;;;-0.17;91.33;101818.22;4899576;29;20820;-64
2023/10/22 02:43:05;;;;;;;8.43;4.90;;;;;;;-0.08;92.02;101820.44;4898881;29;20280;-63
2023/10/22 02:45:31;;;;;;;10.93;6.37;;;;;;;-0.07;91.98;101816.88;4898352;29;20051;-64
2023/10/22 02:47:58;;;;;;;8.57;5.73;;;;;;;-0.14;91.45;101805.84;4898497;29;20040;-64
2023/10/22 02:50:26;;;;;;;8.90;5.40;;;;;;;-0.03;92.08;101829.78;4898368;29;20092;-66
2023/10/22 02:52:55;;;;;;;8.98;5.80;;;;;;;-0.25;91.68;101791.53;4898445;29;20341;-63
2023/10/22 02:55:21;;;;;;;8.52;4.95;;;;;;;-0.10;92.16;101811.78;4897773;29;20070;-62
2023/10/22 02:57:47;;;;;;;8.80;5.67;;;;;;;-0.01;92.08;101824.47;4896885;29;20469;-65
2023/10/22 03:00:14;;;;;;;8.73;5.90;;;;;;;-0.15;92.35;101791.06;4896831;29;20049;-64
2023/10/22 03:02:40;;;;;;;10.97;6.83;;;;;;;-0.16;92.69;101796.38;4897888;29;20364;-62
2023/10/22 03:05:07;;;;;;;11.20;6.90;;;;;;;-0.18;93.31;101787.72;4897437;29;20273;-65
2023/10/22 03:07:33;;;;;;;14.17;6.60;;;;;;;-0.17;93.40;101771.09;4897645;29;20297;-65
2023/10/22 03:09:59;;;;;;;9.93;5.90;;;;;;;-0.01;93.58;101803.50;4897722;29;20640;-64
2023/10/22 03:12:25;;;;;;;10.10;5.90;;;;;;;-0.06;93.56;101787.16;4898056;29;20120;-65
2023/10/22 03:14:52;;;;;;;9.17;5.90;;;;;;;-0.03;93.05;101793.09;4897758;29;20749;-64
2023/10/22 03:17:19;;;;;;;9.27;6.40;;;;;;;-0.19;92.82;101771.16;4898191;29;21301;-64
2023/10/22 03:19:44;;;;;;;11.10;6.47;;;;;;;-0.62;94.10;101705.03;4896154;29;20657;-65
2023/10/22 03:22:11;;;;;;;8.67;5.80;;;;;;;-0.27;94.45;101773.28;4898231;29;20277;-64
2023/10/22 03:24:36;;;;;;;10.00;6.97;;;;;;;-0.43;94.39;101731.25;4898196;29;20386;-66
2023/10/22 03:27:04;;;;;;;8.10;5.37;;;;;;;-0.36;94.39;101735.28;4897263;29;20348;-67
2023/10/22 03:29:30;;;;;;;13.03;7.30;;;;;;;-0.07;94.20;101780.22;4897133;29;20477;-67
2023/10/22 03:31:56;;;;;;;9.87;6.07;;;;;;;-0.09;94.13;101766.34;4897933;29;20336;-64
2023/10/22 03:34:22;;;;;;;9.40;6.50;;;;;;;-0.10;94.45;101759.44;4897542;29;20369;-64
2023/10/22 03:36:47;;;;;;;11.17;5.93;;;;;;;-0.04;94.17;101759.97;4897259;29;20080;-65
2023/10/22 03:39:13;;;;;;;9.83;5.60;;;;;;;-0.15;94.99;101750.94;4897118;29;20045;-66
2023/10/22 03:41:40;;;;;;;10.57;6.23;;;;;;;0.00;95.62;101768.59;4897189;29;20040;-65
2023/10/22 03:44:05;;;;;;;10.80;5.30;;;;;;;0.02;94.96;101745.78;4897645;29;20033;-65
2023/10/22 03:46:31;;;;;;;7.60;5.43;;;;;;;0.10;94.20;101771.63;4898143;29;20269;-63
2023/10/22 03:48:58;;;;;;;10.70;5.50;;;;;;;-0.32;94.89;101707.19;4896190;29;20440;-65
2023/10/22 03:51:26;;;;;;;6.30;4.37;;;;;;;-0.42;95.66;101675.34;4896415;29;20312;-63
2023/10/22 03:53:56;;;;;;;10.75;5.43;;;;;;;0.10;94.74;101769.84;4897044;29;20288;-66
2023/10/22 03:56:22;;;;;;;7.53;5.43;;;;;;;0.15;94.87;101775.72;4896972;29;20059;-66
2023/10/22 03:58:48;;;;;;;6.80;4.90;;;;;;;0.11;95.51;101768.06;4896753;29;20328;-66
2023/10/22 04:01:13;;;;;;;7.63;5.53;;;;;;;-0.06;95.98;101745.25;4897562;29;20273;-65
2023/10/22 04:03:39;;;;;;;9.87;4.97;;;;;;;-0.10;96.03;101728.84;4897166;29;20489;-66
2023/10/22 04:06:04;;;;;;;9.07;5.20;;;;;;;0.17;95.38;101773.03;4897279;29;20044;-62
2023/10/22 04:08:30;;;;;;;9.73;4.77;;;;;;;0.06;95.94;101749.97;4897154;29;20426;-65
2023/10/22 04:10:56;;;;;;;8.17;4.93;;;;;;;0.01;95.80;101745.84;4896709;29;20044;-64
2023/10/22 04:13:22;;;;;;;10.93;4.87;;;;;;;-0.02;96.25;101742.44;4895125;29;20161;-62
2023/10/22 04:15:48;;;;;;;6.50;4.93;;;;;;;-0.48;97.06;101669.56;4895320;29;20044;-64
2023/10/22 04:18:16;;;;;;;9.07;5.70;;;;;;;-0.19;96.97;101718.81;4896600;29;20284;-66
2023/10/22 04:20:42;;;;;;;10.33;4.90;;;;;;;-0.26;97.80;101706.94;4896598;29;20382;-64
2023/10/22 04:23:08;;;;;;;10.47;5.10;;;;;;;-0.08;98.00;101731.41;4896406;29;20272;-64
2023/10/22 04:25:45;;;;;;;7.27;5.17;;;;;;;-0.06;98.14;101733.03;4896461;29;20059;-62
2023/10/22 04:28:15;;;;;;;7.03;4.93;;;;;;;-0.45;98.58;101646.72;4896475;29;20299;-65
2023/10/22 04:30:45;;;;;;;9.83;6.17;;;;;;;-0.49;98.25;101626.84;4896672;29;20273;-63
2023/10/22 04:33:11;;;;;;;8.03;5.40;;;;;;;-0.01;98.56;101696.16;4896579;29;20355;-65
2023/10/22 04:35:37;;;;;;;7.27;4.40;;;;;;;0.09;98.68;101701.81;4896370;29;20376;-64
2023/10/22 04:38:03;;;;;;;6.23;4.20;;;;;;;-0.08;98.42;101681.66;4896449;29;20100;-66
2023/10/22 04:40:32;;;;;;;8.57;4.93;;;;;;;-0.02;98.36;101695.28;4896776;29;20112;-67
2023/10/22 04:42:58;;;;;;;7.47;4.67;;;;;;;-0.10;98.82;101696.59;4896330;29;20088;-65
2023/10/22 04:45:24;;;;;;;13.57;5.77;;;;;;;-0.13;98.96;101702.81;4896306;29;20272;-65
2023/10/22 04:47:49;;;;;;;7.47;5.00;;;;;;;-0.27;99.27;101667.75;4896212;29;20045;-63
2023/10/22 04:50:15;;;;;;;8.43;5.50;;;;;;;-0.26;99.56;101670.28;4894923;29;20029;-65
2023/10/22 04:52:43;;;;;;;8.20;4.83;;;;;;;-0.18;99.63;101675.16;4894905;29;20060;-65
2023/10/22 04:55:12;;;;;;;7.57;5.15;;;;;;;-0.04;99.95;101688.44;4879708;29;20131;-65
2023/10/22 04:57:39;;;;;;;9.07;5.00;;;;;;;0.07;99.79;101696.66;4896299;29;20489;-63
2023/10/22 05:00:09;;;;;;;7.97;5.23;;;;;;;0.08;99.52;101690.50;4895029;29;20269;-64
2023/10/22 05:02:35;;;;;;;7.13;4.50;;;;;;;0.13;98.94;101705.97;4896018;29;20268;-64
2023/10/22 05:05:01;;;;;;;8.43;5.13;;;;;;;0.08;99.01;101698.34;4895910;29;20273;-65
2023/10/22 05:07:30;;;;;;;;;;;;;;;0.11;99.85;101700.81;4896439;29;20834;-64
2023/10/22 05:09:56;;;;;;;5.47;4.80;;;;;;;0.09;99.30;101692.19;4895168;29;19959;-64
2023/10/22 05:12:21;;;;;;;8.67;5.20;;;;;;;-0.04;99.01;101675.34;4896336;29;20461;-63
2023/10/22 05:14:47;;;;;;;7.97;5.67;;;;;;;-0.43;99.03;101621.31;4896218;29;20047;-64
2023/10/22 05:17:13;;;;;;;8.90;5.17;;;;;;;-0.14;99.71;101676.69;4896169;29;20044;-65
2023/10/22 05:19:39;;;;;;;13.40;5.40;;;;;;;-0.04;100.00;101691.06;4895780;29;20044;-64
2023/10/22 05:22:04;;;;;;;11.07;5.90;;;;;;;-0.13;99.34;101674.00;4895791;29;20281;-64
2023/10/22 05:24:30;;;;;;;10.57;6.13;;;;;;;-0.17;99.95;101672.47;4898096;29;20124;-63
2023/10/22 05:26:56;;;;;;;8.63;5.77;;;;;;;-0.03;99.12;101690.13;4899747;29;20409;-66
2023/10/22 05:29:22;;;;;;;12.03;5.67;;;;;;;0.08;98.93;101676.56;4899209;29;20285;-65
2023/10/22 05:31:47;;;;;;;9.13;6.00;;;;;;;0.17;98.86;101695.28;4898079;29;20076;-64
2023/10/22 05:34:13;;;;;;;8.43;6.50;;;;;;;0.19;98.39;101700.44;4899129;29;20044;-65
2023/10/22 05:36:38;;;;;;;8.90;6.17;;;;;;;-0.03;98.61;101677.88;4897777;29;20044;-64
2023/10/22 05:39:04;;;;;;;9.70;5.30;;;;;;;0.12;99.37;101706.91;4899374;29;20113;-62
2023/10/22 05:41:29;;;;;;;8.93;7.03;;;;;;;0.11;98.48;101705.22;4897984;29;20366;-64
2023/10/22 05:43:59;;;;;;;8.63;5.87;;;;;;;0.10;98.64;101721.84;4899091;29;20047;-63
2023/10/22 05:46:32;;;;;;;9.97;5.70;;;;;;;-0.03;99.67;101700.59;4899034;29;20496;-66
2023/10/22 05:48:58;;;;;;;10.63;5.90;;;;;;;-0.12;100.00;101704.50;4898792;29;20273;-64
2023/10/22 05:51:25;;;;;;;9.77;5.87;;;;;;;-0.06;100.00;101703.38;4898532;29;20822;-65
2023/10/22 05:53:51;;;;;;;9.77;7.17;;;;;;;0.09;100.00;101718.38;4898991;29;20564;-64
2023/10/22 05:56:17;;;;;;;10.70;5.13;;;;;;;-0.10;100.00;101691.34;4898904;29;20363;-65
2023/10/22 05:58:43;;;;;;;12.00;7.43;;;;;;;-0.06;100.00;101706.00;4898866;29;20036;-62
2023/10/22 06:01:09;;;;;;;7.23;5.30;;;;;;;-0.07;100.00;101678.97;4900964;29;20045;-65
2023/10/22 06:03:35;;;;;;;12.47;5.90;;;;;;;0.06;100.00;101694.97;4912782;29;20284;-64
2023/10/22 06:06:02;;;;;;;7.27;5.27;;;;;;;0.11;100.00;101689.50;4898627;29;20288;-66
2023/10/22 06:08:28;;;;;;;11.43;6.37;;;;;;;0.03;100.00;101650.59;4898728;29;20811;-64
2023/10/22 06:10:53;;;;;;;8.20;5.83;;;;;;;0.02;100.00;101630.56;4898645;29;20276;-63
2023/10/22 06:13:19;;;;;;;12.30;5.93;;;;;;;0.12;100.00;101642.28;4898162;29;20072;-70
2023/10/22 06:15:45;;;;;;;8.00;5.50;;;;;;;0.04;100.00;101618.22;4898580;29;20344;-64
2023/10/22 06:18:12;;;;;;;12.43;6.13;;;;;;;0.30;100.00;101667.59;4902418;29;20136;-65
2023/10/22 06:20:38;;;;;;;8.87;5.63;;;;;;;0.43;100.00;101687.94;4903382;29;20292;-65
2023/10/22 06:23:04;;;;;;;6.57;4.83;;;;;;;0.37;99.89;101660.28;4897434;29;20277;-66
2023/10/22 06:25:31;;;;;;;8.83;5.77;;;;;;;0.46;100.00;101675.53;4898349;29;20043;-63
2023/10/22 06:27:59;;;;;;;8.50;5.30;;;;;;;0.51;100.00;101670.91;4898237;29;20300;-65
2023/10/22 06:30:25;;;;;;;13.83;6.93;;;;;;;0.60;99.69;101680.97;4898211;29;20261;-64
2023/10/22 06:32:58;;;;;;;8.87;6.43;;;;;;;0.63;99.29;101676.47;4898280;29;20304;-66
2023/10/22 06:35:28;;;;;;;9.20;5.37;;;;;;;0.52;99.95;101666.50;4900666;29;20276;-61
2023/10/22 06:37:53;;;;;;;7.00;5.63;;;;;;;0.44;99.36;101650.31;4910275;29;20276;-63
2023/10/22 06:40:23;;;;;;;8.17;5.87;;;;;;;0.65;99.59;101685.97;4916296;29;20275;-64
2023/10/22 06:42:49;;;;;;;13.07;6.77;;;;;;;0.35;99.39;101640.31;4918504;29;20141;-63
2023/10/22 06:45:16;;;;;;;8.47;5.93;;;;;;;0.60;100.00;101667.00;4917495;29;20312;-64
2023/10/22 06:47:42;;;;;;;12.30;6.57;;;;;;;0.70;99.31;101670.84;4917177;29;20310;-61
2023/10/22 06:50:11;;;;;;;8.60;5.80;;;;;;;0.85;99.32;101677.06;4916907;29;20280;-63
2023/10/22 06:52:41;;;;;;;10.30;6.53;;;;;;;0.98;99.27;101675.53;4916812;29;20312;-62
2023/10/22 06:55:10;;;;;;;8.80;5.37;;;;;;;1.08;97.11;101686.41;4916995;29;20343;-64
2023/10/22 06:57:36;;;;;;;7.47;5.73;;;;;;;0.94;98.25;101676.63;4916481;29;20351;-63
2023/10/22 07:00:02;;;;;;;9.03;5.83;;;;;;;0.81;98.42;101665.91;4916675;29;20760;-64
2023/10/22 07:02:33;;;;;;;10.47;6.13;;;;;;;0.77;99.14;101669.59;4917497;29;20559;-63
2023/10/22 07:04:59;;;;;;;9.93;4.97;;;;;;;0.59;99.11;101631.22;4916936;29;20276;-66
2023/10/22 07:07:25;;;;;;;9.43;5.70;;;;;;;0.80;99.09;101665.97;4917053;29;20347;-66
2023/10/22 07:09:50;;;;;;;7.70;4.83;;;;;;;0.78;99.39;101657.34;4915281;29;20103;-62
2023/10/22 07:12:16;;;;;;;7.67;5.47;;;;;;;0.83;99.16;101657.94;4916954;29;20067;-63
2023/10/22 07:14:43;;;;;;;7.57;5.10;;;;;;;0.92;99.37;101647.84;4916864;29;20036;-66
2023/10/22 07:17:09;;;;;;;7.53;5.73;;;;;;;1.05;99.15;101642.81;4917810;29;20272;-69
2023/10/22 07:19:34;;;;;;;9.40;6.07;;;;;;;1.10;98.17;101632.91;4911051;29;20281;-64
2023/10/22 07:22:00;;;;;;;13.23;6.77;;;;;;;1.15;97.57;101632.66;4916230;29;20104;-64
2023/10/22 07:24:26;;;;;;;15.03;6.73;;;;;;;1.20;97.48;101635.94;4900677;29;20293;-65
2023/10/22 07:26:52;;;;;;;9.30;5.87;;;;;;;1.07;97.24;101601.59;4900174;29;20292;-68
2023/10/22 07:29:18;;;;;;;8.43;6.23;;;;;;;1.16;96.52;101609.00;4898076;29;20037;-66
2023/10/22 07:31:46;;;;;;;11.87;5.70;;;;;;;1.36;95.98;101647.28;4896211;29;20412;-66
2023/10/22 07:34:11;;;;;;;11.03;5.63;;;;;;;1.24;96.08;101616.47;4897718;29;20047;-65
2023/10/22 07:36:37;;;;;;;11.73;6.00;;;;;;;1.32;96.30;101635.25;4897922;29;20272;-64
2023/10/22 07:39:03;;;;;;;9.53;5.43;;;;;;;1.35;96.45;101629.00;4897070;29;20055;-65
2023/10/22 07:41:29;;;;;;;10.60;6.10;;;;;;;1.26;96.44;101616.38;4897165;29;20064;-65
2023/10/22 07:43:55;;;;;;;9.17;6.00;;;;;;;1.25;95.72;101618.16;4897715;29;20052;-64
2023/10/22 07:46:20;;;;;;;7.40;5.20;;;;;;;1.28;96.47;101623.22;4898368;29;20261;-66
2023/10/22 07:48:46;;;;;;;10.47;6.10;;;;;;;1.17;96.40;101610.69;4897339;29;20457;-70
2023/10/22 07:51:16;;;;;;;9.77;6.37;;;;;;;1.23;96.65;101614.75;4897374;29;20103;-65
2023/10/22 07:53:42;;;;;;;12.43;6.47;;;;;;;1.38;96.82;101628.81;4897472;29;20096;-67
2023/10/22 07:56:10;;;;;;;8.93;5.97;;;;;;;1.22;96.23;101600.78;4897614;29;20863;-67
2023/10/22 07:58:39;;;;;;;12.33;6.33;;;;;;;1.05;97.09;101543.13;4896268;29;20809;-67
2023/10/22 08:01:06;;;;;;;10.23;6.50;;;;;;;1.46;96.01;101588.13;4897478;29;20281;-67
2023/10/22 08:03:32;;;;;;;14.13;7.10;;;;;;;1.74;95.50;101615.50;4896891;29;20283;-71
2023/10/22 08:05:59;;;;;;;11.43;6.80;;;;;;;1.75;95.10;101597.03;4896897;29;20273;-69
2023/10/22 08:08:25;;;;;;;7.20;6.17;;;;;;;1.62;94.54;101563.63;4896797;29;20297;-66
2023/10/22 08:10:51;;;;;;;12.20;7.67;;;;;;;1.77;94.53;101565.41;4896916;29;20333;-65
2023/10/22 08:13:19;;;;;;;12.20;6.40;;;;;;;1.90;94.38;101574.28;4896755;29;20048;-66
2023/10/22 08:15:46;;;;;;;11.07;6.00;;;;;;;2.10;92.85;101576.63;4897249;29;20064;-64
2023/10/22 08:18:11;;;;;;;16.83;7.73;;;;;;;2.07;92.50;101554.94;4896976;29;20044;-66
2023/10/22 08:20:37;;;;;;;10.50;7.47;;;;;;;2.05;91.85;101549.78;4911681;29;20281;-64
2023/10/22 08:23:03;;;;;;;8.87;6.13;;;;;;;2.22;92.85;101555.81;4896914;29;20144;-68
2023/10/22 08:25:28;;;;;;;13.23;7.40;;;;;;;2.36;91.65;101556.72;4911515;29;20397;-70
2023/10/22 08:27:55;;;;;;;10.00;6.13;;;;;;;2.45;90.37;101560.56;4898658;29;20044;-69
2023/10/22 08:30:21;;;;;;;8.23;6.30;;;;;;;2.40;90.29;101549.50;4898105;29;20111;-67
2023/10/22 08:32:47;;;;;;;12.03;6.53;;;;;;;2.39;90.84;101548.66;4898636;29;20277;-71
2023/10/22 08:35:13;;;;;;;8.67;5.60;;;;;;;2.33;90.79;101525.34;4898487;29;20120;-67
2023/10/22 08:37:40;;;;;;;10.60;6.10;;;;;;;2.43;90.98;101525.66;4913131;29;20749;-66
2023/10/22 08:40:08;;;;;;;11.50;6.17;;;;;;;2.18;90.51;101445.63;4898101;29;20360;-70
2023/10/22 08:42:35;;;;;;;8.27;5.60;;;;;;;2.84;89.15;101519.66;4910846;29;20284;-66
2023/10/22 08:45:02;;;;;;;11.10;5.80;;;;;;;2.76;88.48;101528.00;4897544;29;20039;-68
2023/10/22 08:47:30;;;;;;;15.07;5.97;;;;;;;2.88;89.88;101539.56;4898112;29;20384;-68
2023/10/22 08:49:56;;;;;;;9.90;6.00;;;;;;;2.91;88.69;101536.78;4899967;29;20284;-66
2023/10/22 08:52:23;;;;;;;10.67;6.70;;;;;;;2.72;88.23;101508.94;4898091;29;20159;-69
2023/10/22 08:54:49;;;;;;;10.87;6.43;;;;;;;2.85;88.26;101531.84;4898407;29;20936;-64
2023/10/22 08:57:15;;;;;;;13.87;6.47;;;;;;;2.90;89.03;101554.34;4898052;29;20714;-69
2023/10/22 08:59:43;;;;;;;8.77;5.80;;;;;;;2.75;88.85;101536.84;4904557;29;20041;-65
2023/10/22 09:02:11;;;;;;;12.37;7.27;;;;;;;2.71;88.79;101541.44;4906735;29;20340;-67
2023/10/22 09:04:38;;;;;;;11.33;7.20;;;;;;;2.72;90.22;101540.50;4926439;29;20253;-69
2023/10/22 09:07:04;;;;;;;14.47;7.10;;;;;;;2.75;90.24;101542.94;4919513;29;20300;-66
2023/10/22 09:09:35;;;;;;;9.67;6.43;;;;;;;2.67;89.63;101545.22;4919672;29;20321;-65
2023/10/22 09:12:02;;;;;;;14.57;7.03;;;;;;;2.47;91.11;101520.09;4917507;29;20042;-67
2023/10/22 09:14:30;;;;;;;10.27;6.87;;;;;;;2.50;91.44;101516.44;4901334;29;20308;-69
2023/10/22 09:16:56;;;;;;;12.63;7.30;;;;;;;2.75;91.44;101531.59;4900722;29;20355;-67
2023/10/22 09:19:36;;;;;;;13.00;7.10;;;;;;;2.87;89.54;101536.09;4901128;29;20269;-70
2023/10/22 09:22:03;;;;;;;10.57;6.97;;;;;;;2.78;89.49;101519.09;4900969;29;20279;-71
2023/10/22 09:24:31;;;;;;;14.33;7.30;;;;;;;2.83;89.99;101531.97;4901007;29;20277;-71
2023/10/22 09:26:57;;;;;;;8.85;6.22;;;;;;;2.58;89.29;101487.88;4882743;29;20704;-68
2023/10/22 09:29:24;;;;;;;11.87;6.83;;;;;;;2.77;90.59;101522.66;4899529;29;20032;-68
2023/10/22 09:31:51;;;;;;;16.07;6.87;;;;;;;2.71;91.25;101512.53;4899586;29;20040;-67
2023/10/22 09:34:27;;;;;;;17.43;7.13;;;;;;;2.70;91.12;101500.31;4899419;29;20391;-68
2023/10/22 09:36:59;;;;;;;15.27;6.67;;;;;;;2.79;90.36;101497.09;4899365;29;20281;-67
2023/10/22 09:39:39;;;;;;;15.27;7.03;;;;;;;2.84;90.72;101503.84;4899456;29;20277;-68
2023/10/22 09:42:06;;;;;;;12.47;7.10;;;;;;;2.91;91.20;101497.31;4899615;29;20273;-69
2023/10/22 09:44:33;;;;;;;12.27;6.97;;;;;;;2.77;89.25;101475.31;4899637;29;20288;-73
2023/10/22 09:47:06;;;;;;;12.87;6.23;;;;;;;2.84;90.52;101493.34;4899764;29;20332;-68
2023/10/22 09:49:35;;;;;;;14.10;6.63;;;;;;;2.99;89.68;101500.28;4899893;29;20284;-68
2023/10/22 09:52:04;;;;;;;10.82;6.85;;;;;;;2.88;89.53;101479.06;4900638;29;20312;-69
2023/10/22 09:54:38;;;;;;;14.33;6.90;;;;;;;3.11;90.50;101497.72;4901771;29;20096;-71
2023/10/22 09:57:14;;;;;;;11.70;7.27;;;;;;;3.13;89.61;101496.78;4899574;29;20666;-69
2023/10/22 09:59:41;;;;;;;12.40;6.77;;;;;;;2.80;90.62;101456.69;4902534;29;20362;-68
2023/10/22 10:02:09;;;;;;;15.37;9.63;;;;;;;2.69;91.36;101443.38;4914954;29;20830;-70
2023/10/22 10:04:35;;;;;;;13.05;7.68;;;;;;;3.05;92.11;101484.13;4899288;29;20273;-80
2023/10/22 10:07:03;;;;;;;17.67;7.43;;;;;;;2.86;91.02;101433.56;4908696;29;20036;-72
2023/10/22 10:09:30;;;;;;;9.80;7.30;;;;;;;3.25;90.77;101472.34;4918028;29;20618;-68
2023/10/22 10:11:58;;;;;;;11.87;7.30;;;;;;;3.04;89.79;101443.78;4918262;29;20272;-69
2023/10/22 10:14:42;;;;;;;12.87;7.20;;;;;;;3.18;89.88;101474.53;4917534;29;20300;-68
2023/10/22 10:17:10;;;;;;;16.33;8.00;;;;;;;3.12;90.51;101477.50;4916530;29;20291;-66
2023/10/22 10:19:36;;;;;;;17.13;8.00;;;;;;;3.13;91.40;101465.19;4917258;29;20340;-67
2023/10/22 10:22:02;;;;;;;14.93;7.90;;;;;;;2.98;89.93;101443.34;4918211;29;20276;-67
2023/10/22 10:24:32;;;;;;;16.10;7.47;;;;;;;3.16;90.62;101489.53;4918300;29;20272;-71
2023/10/22 10:26:57;;;;;;;14.90;7.97;;;;;;;3.29;90.67;101492.25;4918632;29;20296;-69
2023/10/22 10:29:27;;;;;;;13.87;6.90;;;;;;;3.09;90.03;101472.44;4917773;29;20335;-70
2023/10/22 10:31:56;;;;;;;12.63;8.27;;;;;;;2.96;91.47;101461.03;4918112;29;20044;-69
2023/10/22 10:34:30;;;;;;;;;;;;;;;3.09;91.93;101488.25;4918172;29;20300;-70
2023/10/22 10:36:57;;;;;;;14.67;7.00;;;;;;;3.03;92.69;101483.38;4918539;29;19926;-69
2023/10/22 10:39:38;;;;;;;17.23;8.07;;;;;;;2.41;93.00;101375.03;4919269;29;20265;-72
2023/10/22 10:42:04;;;;;;;12.30;7.67;;;;;;;3.01;92.97;101458.94;4917911;29;20264;-71
2023/10/22 10:44:31;;;;;;;14.50;7.47;;;;;;;3.11;92.57;101460.03;4917148;29;20280;-69
2023/10/22 10:47:21;;;;;;;16.70;9.07;;;;;;;3.15;92.19;101445.72;4917420;29;20693;-70
2023/10/22 10:50:02;;;;;;;13.73;7.83;;;;;;;3.09;91.79;101435.59;4932662;29;20303;-70
2023/10/22 10:52:34;;;;;;;14.43;7.30;;;;;;;3.10;92.34;101432.03;4919414;29;20300;-70
2023/10/22 10:55:06;;;;;;;;;;;;;;;3.13;92.32;101431.81;4918424;29;20791;-73
2023/10/22 10:57:36;;;;;;;17.07;7.20;;;;;;;3.05;93.09;101434.13;4917497;29;19922;-73
2023/10/22 11:00:09;;;;;;;11.20;7.63;;;;;;;2.70;92.64;101360.91;4916006;29;20286;-67
2023/10/22 11:02:40;;;;;;;14.03;8.33;;;;;;;3.17;92.26;101428.06;4914654;29;20272;-67
2023/10/22 11:05:07;;;;;;;12.17;7.07;;;;;;;3.10;91.81;101403.06;4916738;29;20350;-69
2023/10/22 11:07:32;;;;;;;18.53;7.93;;;;;;;3.03;91.97;101388.63;4904304;29;20292;-66
2023/10/22 11:09:58;;;;;;;14.37;7.60;;;;;;;3.20;92.61;101417.34;4895853;29;20273;-68
2023/10/22 11:12:24;;;;;;;10.47;7.27;;;;;;;3.07;92.08;101390.97;4909790;29;20032;-69
2023/10/22 11:14:57;;;;;;;13.87;7.43;;;;;;;2.76;92.05;101342.09;4916100;29;20408;-68
2023/10/22 11:17:22;;;;;;;11.87;8.17;;;;;;;3.18;91.90;101403.44;4916344;29;20347;-69
2023/10/22 11:19:51;;;;;;;12.30;7.27;;;;;;;3.21;92.53;101392.72;4916054;29;20742;-67
2023/10/22 11:22:17;;;;;;;11.93;7.30;;;;;;;3.27;91.80;101392.31;4916299;29;20066;-66
2023/10/22 11:24:44;;;;;;;12.63;7.40;;;;;;;3.35;91.95;101413.72;4915048;29;20061;-69
2023/10/22 11:27:10;;;;;;;14.23;7.83;;;;;;;3.16;91.88;101379.00;4916489;29;20657;-67